Terminal Aerodrome Forecast
Issued by NWS

Home | Current Version | Previous Version | Text Only | Print | Product List | Glossary On
Versions: 1 2 3 4 5 6 7 8 9 10 11 12 13 14
299
FTUS45 KABQ 251732
TAFLVS
TAF
KLVS 251732Z 2518/2618 17008KT P6SM SKC
     FM252300 19011KT P6SM FEW090
     FM260600 20008KT P6SM FEW250
     FM261300 01012G20KT P6SM SCT250=

USA.gov is the U.S. government's official web portal to all federal, state and local government web resources and services.